sensor_id;sensor_type;location;lat;lon;timestamp;P1;durP1;ratioP1;P2;durP2;ratioP2
8665;SDS011;4370;48.916;8.380;2024-01-15T00:00:40;42.93;;;17.50;;
8665;SDS011;4370;48.916;8.380;2024-01-15T00:03:06;41.20;;;16.87;;
8665;SDS011;4370;48.916;8.380;2024-01-15T00:05:32;42.17;;;17.93;;
8665;SDS011;4370;48.916;8.380;2024-01-15T00:07:58;41.23;;;18.40;;
8665;SDS011;4370;48.916;8.380;2024-01-15T00:10:24;42.33;;;17.57;;
8665;SDS011;4370;48.916;8.380;2024-01-15T00:12:50;44.73;;;17.67;;
8665;SDS011;4370;48.916;8.380;2024-01-15T00:15:16;38.90;;;16.60;;
8665;SDS011;4370;48.916;8.380;2024-01-15T00:17:42;43.83;;;18.30;;
8665;SDS011;4370;48.916;8.380;2024-01-15T00:20:08;43.20;;;18.17;;
8665;SDS011;4370;48.916;8.380;2024-01-15T00:22:34;43.43;;;18.67;;
8665;SDS011;4370;48.916;8.380;2024-01-15T00:25:00;39.23;;;16.47;;
8665;SDS011;4370;48.916;8.380;2024-01-15T00:27:26;46.00;;;17.97;;
8665;SDS011;4370;48.916;8.380;2024-01-15T00:29:52;39.63;;;17.87;;
8665;SDS011;4370;48.916;8.380;2024-01-15T00:32:19;45.97;;;19.63;;
8665;SDS011;4370;48.916;8.380;2024-01-15T00:34:45;39.23;;;17.30;;
8665;SDS011;4370;48.916;8.380;2024-01-15T00:37:11;40.60;;;18.17;;
8665;SDS011;4370;48.916;8.380;2024-01-15T00:39:37;44.40;;;18.13;;
8665;SDS011;4370;48.916;8.380;2024-01-15T00:42:03;42.53;;;17.63;;
8665;SDS011;4370;48.916;8.380;2024-01-15T00:44:29;46.80;;;20.17;;
8665;SDS011;4370;48.916;8.380;2024-01-15T00:46:55;44.97;;;19.30;;
8665;SDS011;4370;48.916;8.380;2024-01-15T00:49:21;39.20;;;17.67;;
8665;SDS011;4370;48.916;8.380;2024-01-15T00:51:47;44.47;;;19.03;;
8665;SDS011;4370;48.916;8.380;2024-01-15T00:54:13;50.07;;;19.37;;
8665;SDS011;4370;48.916;8.380;2024-01-15T00:56:39;44.30;;;18.87;;
8665;SDS011;4370;48.916;8.380;2024-01-15T00:59:05;46.67;;;19.87;;
8665;SDS011;4370;48.916;8.380;2024-01-15T01:01:31;44.70;;;19.37;;
8665;SDS011;4370;48.916;8.380;2024-01-15T01:03:57;48.57;;;19.43;;
8665;SDS011;4370;48.916;8.380;2024-01-15T01:06:23;44.87;;;19.90;;
8665;SDS011;4370;48.916;8.380;2024-01-15T01:08:49;44.70;;;19.17;;
8665;SDS011;4370;48.916;8.380;2024-01-15T01:11:15;46.63;;;19.73;;
8665;SDS011;4370;48.916;8.380;2024-01-15T01:13:41;48.37;;;19.47;;
8665;SDS011;4370;48.916;8.380;2024-01-15T01:16:07;48.43;;;20.37;;
8665;SDS011;4370;48.916;8.380;2024-01-15T01:18:34;50.77;;;20.40;;
8665;SDS011;4370;48.916;8.380;2024-01-15T01:21:00;52.90;;;21.70;;
8665;SDS011;4370;48.916;8.380;2024-01-15T01:23:26;46.10;;;20.63;;
8665;SDS011;4370;48.916;8.380;2024-01-15T01:25:52;50.83;;;20.40;;
8665;SDS011;4370;48.916;8.380;2024-01-15T01:28:18;46.93;;;20.20;;
8665;SDS011;4370;48.916;8.380;2024-01-15T01:30:43;48.17;;;19.87;;
8665;SDS011;4370;48.916;8.380;2024-01-15T01:33:09;47.17;;;20.33;;
8665;SDS011;4370;48.916;8.380;2024-01-15T01:35:35;54.03;;;22.07;;
8665;SDS011;4370;48.916;8.380;2024-01-15T01:38:01;51.67;;;22.13;;
8665;SDS011;4370;48.916;8.380;2024-01-15T01:40:28;47.80;;;20.27;;
8665;SDS011;4370;48.916;8.380;2024-01-15T01:42:54;53.77;;;21.53;;
8665;SDS011;4370;48.916;8.380;2024-01-15T01:45:19;51.33;;;20.20;;
8665;SDS011;4370;48.916;8.380;2024-01-15T01:47:45;54.40;;;21.00;;
8665;SDS011;4370;48.916;8.380;2024-01-15T01:50:12;51.23;;;20.63;;
8665;SDS011;4370;48.916;8.380;2024-01-15T01:52:38;51.60;;;21.00;;
8665;SDS011;4370;48.916;8.380;2024-01-15T01:55:04;48.53;;;20.10;;
8665;SDS011;4370;48.916;8.380;2024-01-15T01:57:31;49.03;;;20.87;;
8665;SDS011;4370;48.916;8.380;2024-01-15T01:59:58;50.17;;;20.10;;
8665;SDS011;4370;48.916;8.380;2024-01-15T02:02:25;54.73;;;20.00;;
8665;SDS011;4370;48.916;8.380;2024-01-15T02:04:51;47.47;;;19.93;;
8665;SDS011;4370;48.916;8.380;2024-01-15T02:07:17;47.60;;;20.70;;
8665;SDS011;4370;48.916;8.380;2024-01-15T02:09:44;50.37;;;20.50;;
8665;SDS011;4370;48.916;8.380;2024-01-15T02:12:10;44.40;;;20.10;;
8665;SDS011;4370;48.916;8.380;2024-01-15T02:14:36;45.40;;;20.27;;
8665;SDS011;4370;48.916;8.380;2024-01-15T02:17:02;55.27;;;21.57;;
8665;SDS011;4370;48.916;8.380;2024-01-15T02:19:28;51.20;;;21.07;;
8665;SDS011;4370;48.916;8.380;2024-01-15T02:21:54;51.07;;;21.00;;
8665;SDS011;4370;48.916;8.380;2024-01-15T02:24:20;49.93;;;19.60;;
8665;SDS011;4370;48.916;8.380;2024-01-15T02:26:46;49.23;;;19.90;;
8665;SDS011;4370;48.916;8.380;2024-01-15T02:29:12;47.03;;;19.87;;
8665;SDS011;4370;48.916;8.380;2024-01-15T02:31:38;53.00;;;21.83;;
8665;SDS011;4370;48.916;8.380;2024-01-15T02:34:04;43.90;;;19.23;;
8665;SDS011;4370;48.916;8.380;2024-01-15T02:36:30;51.23;;;21.00;;
8665;SDS011;4370;48.916;8.380;2024-01-15T02:38:56;48.63;;;20.00;;
8665;SDS011;4370;48.916;8.380;2024-01-15T02:41:22;46.27;;;19.87;;
8665;SDS011;4370;48.916;8.380;2024-01-15T02:43:48;42.03;;;19.23;;
8665;SDS011;4370;48.916;8.380;2024-01-15T02:46:14;47.27;;;20.87;;
8665;SDS011;4370;48.916;8.380;2024-01-15T02:48:41;48.57;;;20.57;;
8665;SDS011;4370;48.916;8.380;2024-01-15T02:51:07;50.10;;;21.27;;
8665;SDS011;4370;48.916;8.380;2024-01-15T02:53:33;50.67;;;20.40;;
8665;SDS011;4370;48.916;8.380;2024-01-15T02:55:59;50.30;;;20.40;;
8665;SDS011;4370;48.916;8.380;2024-01-15T02:58:24;47.60;;;20.20;;
8665;SDS011;4370;48.916;8.380;2024-01-15T03:00:50;46.63;;;19.53;;
8665;SDS011;4370;48.916;8.380;2024-01-15T03:03:16;47.17;;;20.23;;
8665;SDS011;4370;48.916;8.380;2024-01-15T03:05:42;46.00;;;19.70;;
8665;SDS011;4370;48.916;8.380;2024-01-15T03:08:08;44.67;;;20.80;;
8665;SDS011;4370;48.916;8.380;2024-01-15T03:10:34;42.43;;;17.50;;
8665;SDS011;4370;48.916;8.380;2024-01-15T03:13:00;47.30;;;20.50;;
8665;SDS011;4370;48.916;8.380;2024-01-15T03:15:26;43.17;;;18.63;;
8665;SDS011;4370;48.916;8.380;2024-01-15T03:17:52;51.87;;;20.80;;
8665;SDS011;4370;48.916;8.380;2024-01-15T03:20:18;45.13;;;19.60;;
8665;SDS011;4370;48.916;8.380;2024-01-15T03:22:44;45.60;;;19.07;;
8665;SDS011;4370;48.916;8.380;2024-01-15T03:25:10;45.07;;;20.13;;
8665;SDS011;4370;48.916;8.380;2024-01-15T03:27:36;44.70;;;18.90;;
8665;SDS011;4370;48.916;8.380;2024-01-15T03:30:02;45.73;;;19.60;;
8665;SDS011;4370;48.916;8.380;2024-01-15T03:32:28;42.77;;;19.53;;
8665;SDS011;4370;48.916;8.380;2024-01-15T03:34:54;50.13;;;20.93;;
8665;SDS011;4370;48.916;8.380;2024-01-15T03:37:20;44.80;;;19.33;;
8665;SDS011;4370;48.916;8.380;2024-01-15T03:39:46;46.47;;;19.07;;
8665;SDS011;4370;48.916;8.380;2024-01-15T03:42:12;46.17;;;19.00;;
8665;SDS011;4370;48.916;8.380;2024-01-15T03:44:39;42.67;;;18.73;;
8665;SDS011;4370;48.916;8.380;2024-01-15T03:47:05;44.53;;;18.63;;
8665;SDS011;4370;48.916;8.380;2024-01-15T03:49:31;40.30;;;18.03;;
8665;SDS011;4370;48.916;8.380;2024-01-15T03:51:57;43.07;;;18.13;;
8665;SDS011;4370;48.916;8.380;2024-01-15T03:54:23;44.13;;;18.67;;
8665;SDS011;4370;48.916;8.380;2024-01-15T03:56:49;39.00;;;17.83;;
8665;SDS011;4370;48.916;8.380;2024-01-15T03:59:15;42.10;;;18.60;;
8665;SDS011;4370;48.916;8.380;2024-01-15T04:01:40;46.10;;;19.40;;
8665;SDS011;4370;48.916;8.380;2024-01-15T04:04:06;46.03;;;19.30;;
8665;SDS011;4370;48.916;8.380;2024-01-15T04:06:32;46.70;;;19.20;;
8665;SDS011;4370;48.916;8.380;2024-01-15T04:08:58;43.40;;;17.27;;
8665;SDS011;4370;48.916;8.380;2024-01-15T04:11:24;39.67;;;18.43;;
8665;SDS011;4370;48.916;8.380;2024-01-15T04:13:50;40.47;;;18.67;;
8665;SDS011;4370;48.916;8.380;2024-01-15T04:16:16;48.50;;;19.63;;
8665;SDS011;4370;48.916;8.380;2024-01-15T04:18:42;47.07;;;19.30;;
8665;SDS011;4370;48.916;8.380;2024-01-15T04:21:08;44.57;;;18.87;;
8665;SDS011;4370;48.916;8.380;2024-01-15T04:23:34;43.87;;;18.57;;
8665;SDS011;4370;48.916;8.380;2024-01-15T04:26:00;47.23;;;21.00;;
8665;SDS011;4370;48.916;8.380;2024-01-15T04:28:26;44.83;;;19.40;;
8665;SDS011;4370;48.916;8.380;2024-01-15T04:30:52;40.27;;;18.67;;
8665;SDS011;4370;48.916;8.380;2024-01-15T04:33:18;41.40;;;18.80;;
8665;SDS011;4370;48.916;8.380;2024-01-15T04:35:44;42.23;;;18.10;;
8665;SDS011;4370;48.916;8.380;2024-01-15T04:38:10;40.87;;;17.70;;
8665;SDS011;4370;48.916;8.380;2024-01-15T04:40:36;45.40;;;19.03;;
8665;SDS011;4370;48.916;8.380;2024-01-15T04:43:02;42.80;;;17.97;;
8665;SDS011;4370;48.916;8.380;2024-01-15T04:45:27;44.63;;;18.20;;
8665;SDS011;4370;48.916;8.380;2024-01-15T04:47:54;38.70;;;16.77;;
8665;SDS011;4370;48.916;8.380;2024-01-15T04:50:23;40.20;;;17.70;;
8665;SDS011;4370;48.916;8.380;2024-01-15T04:52:49;44.13;;;18.30;;
8665;SDS011;4370;48.916;8.380;2024-01-15T04:55:15;43.33;;;18.50;;
8665;SDS011;4370;48.916;8.380;2024-01-15T04:57:41;41.80;;;18.40;;
8665;SDS011;4370;48.916;8.380;2024-01-15T05:00:08;40.50;;;17.87;;
8665;SDS011;4370;48.916;8.380;2024-01-15T05:02:34;41.57;;;18.27;;
8665;SDS011;4370;48.916;8.380;2024-01-15T05:04:59;39.43;;;17.73;;
8665;SDS011;4370;48.916;8.380;2024-01-15T05:07:25;39.07;;;17.60;;
8665;SDS011;4370;48.916;8.380;2024-01-15T05:09:51;40.70;;;17.90;;
8665;SDS011;4370;48.916;8.380;2024-01-15T05:12:17;43.50;;;17.87;;
8665;SDS011;4370;48.916;8.380;2024-01-15T05:14:43;44.50;;;18.93;;
8665;SDS011;4370;48.916;8.380;2024-01-15T05:17:09;39.43;;;18.33;;
8665;SDS011;4370;48.916;8.380;2024-01-15T05:19:35;43.07;;;18.60;;
8665;SDS011;4370;48.916;8.380;2024-01-15T05:22:01;40.77;;;18.90;;
8665;SDS011;4370;48.916;8.380;2024-01-15T05:24:27;44.40;;;19.23;;
8665;SDS011;4370;48.916;8.380;2024-01-15T05:26:53;41.20;;;17.73;;
8665;SDS011;4370;48.916;8.380;2024-01-15T05:29:19;41.47;;;18.57;;
8665;SDS011;4370;48.916;8.380;2024-01-15T05:31:45;42.93;;;18.40;;
8665;SDS011;4370;48.916;8.380;2024-01-15T05:34:11;41.87;;;18.97;;
8665;SDS011;4370;48.916;8.380;2024-01-15T05:36:37;37.63;;;18.27;;
8665;SDS011;4370;48.916;8.380;2024-01-15T05:39:02;38.70;;;17.37;;
8665;SDS011;4370;48.916;8.380;2024-01-15T05:41:29;43.27;;;18.37;;
8665;SDS011;4370;48.916;8.380;2024-01-15T05:43:55;39.20;;;18.20;;
8665;SDS011;4370;48.916;8.380;2024-01-15T05:46:21;41.37;;;18.87;;
8665;SDS011;4370;48.916;8.380;2024-01-15T05:48:46;36.93;;;16.67;;
8665;SDS011;4370;48.916;8.380;2024-01-15T05:51:12;37.37;;;18.47;;
8665;SDS011;4370;48.916;8.380;2024-01-15T05:53:38;47.07;;;20.07;;
8665;SDS011;4370;48.916;8.380;2024-01-15T05:56:06;46.50;;;18.60;;
8665;SDS011;4370;48.916;8.380;2024-01-15T05:58:32;41.00;;;18.20;;
8665;SDS011;4370;48.916;8.380;2024-01-15T06:00:58;38.00;;;18.33;;
8665;SDS011;4370;48.916;8.380;2024-01-15T06:03:24;41.10;;;19.87;;
8665;SDS011;4370;48.916;8.380;2024-01-15T06:05:50;38.37;;;19.27;;
8665;SDS011;4370;48.916;8.380;2024-01-15T06:08:16;41.77;;;19.03;;
8665;SDS011;4370;48.916;8.380;2024-01-15T06:10:42;43.30;;;19.17;;
8665;SDS011;4370;48.916;8.380;2024-01-15T06:13:08;34.97;;;17.60;;
8665;SDS011;4370;48.916;8.380;2024-01-15T06:15:34;39.50;;;18.63;;
8665;SDS011;4370;48.916;8.380;2024-01-15T06:18:00;39.93;;;18.87;;
8665;SDS011;4370;48.916;8.380;2024-01-15T06:20:26;42.40;;;20.30;;
8665;SDS011;4370;48.916;8.380;2024-01-15T06:22:52;36.23;;;17.77;;
8665;SDS011;4370;48.916;8.380;2024-01-15T06:25:18;39.27;;;19.23;;
8665;SDS011;4370;48.916;8.380;2024-01-15T06:27:44;38.50;;;18.80;;
8665;SDS011;4370;48.916;8.380;2024-01-15T06:30:10;43.40;;;18.80;;
8665;SDS011;4370;48.916;8.380;2024-01-15T06:32:36;43.33;;;18.27;;
8665;SDS011;4370;48.916;8.380;2024-01-15T06:35:03;36.90;;;18.80;;
8665;SDS011;4370;48.916;8.380;2024-01-15T06:37:29;40.47;;;18.57;;
8665;SDS011;4370;48.916;8.380;2024-01-15T06:39:55;32.70;;;16.87;;
8665;SDS011;4370;48.916;8.380;2024-01-15T06:42:21;39.93;;;18.33;;
8665;SDS011;4370;48.916;8.380;2024-01-15T06:44:47;40.43;;;17.57;;
8665;SDS011;4370;48.916;8.380;2024-01-15T06:47:13;37.30;;;17.67;;
8665;SDS011;4370;48.916;8.380;2024-01-15T06:49:39;36.37;;;17.90;;
8665;SDS011;4370;48.916;8.380;2024-01-15T06:52:05;37.97;;;18.27;;
8665;SDS011;4370;48.916;8.380;2024-01-15T06:54:31;37.87;;;17.83;;
8665;SDS011;4370;48.916;8.380;2024-01-15T06:56:57;34.90;;;16.50;;
8665;SDS011;4370;48.916;8.380;2024-01-15T06:59:23;40.50;;;17.77;;
8665;SDS011;4370;48.916;8.380;2024-01-15T07:01:49;37.83;;;16.13;;
8665;SDS011;4370;48.916;8.380;2024-01-15T07:04:15;30.57;;;15.50;;
8665;SDS011;4370;48.916;8.380;2024-01-15T07:06:41;36.03;;;16.30;;
8665;SDS011;4370;48.916;8.380;2024-01-15T07:09:07;35.90;;;16.53;;
8665;SDS011;4370;48.916;8.380;2024-01-15T07:11:34;31.50;;;16.60;;
8665;SDS011;4370;48.916;8.380;2024-01-15T07:14:00;36.37;;;17.93;;
8665;SDS011;4370;48.916;8.380;2024-01-15T07:16:26;38.43;;;17.97;;
8665;SDS011;4370;48.916;8.380;2024-01-15T07:18:52;36.50;;;17.50;;
8665;SDS011;4370;48.916;8.380;2024-01-15T07:21:18;34.80;;;16.13;;
8665;SDS011;4370;48.916;8.380;2024-01-15T07:23:44;33.70;;;15.93;;
8665;SDS011;4370;48.916;8.380;2024-01-15T07:26:10;37.57;;;17.23;;
8665;SDS011;4370;48.916;8.380;2024-01-15T07:28:36;36.50;;;17.67;;
8665;SDS011;4370;48.916;8.380;2024-01-15T07:31:02;35.13;;;17.47;;
8665;SDS011;4370;48.916;8.380;2024-01-15T07:33:28;40.20;;;18.67;;
8665;SDS011;4370;48.916;8.380;2024-01-15T07:35:55;38.17;;;18.40;;
8665;SDS011;4370;48.916;8.380;2024-01-15T07:38:21;39.37;;;18.77;;
8665;SDS011;4370;48.916;8.380;2024-01-15T07:40:47;41.03;;;19.43;;
8665;SDS011;4370;48.916;8.380;2024-01-15T07:43:14;40.60;;;18.67;;
8665;SDS011;4370;48.916;8.380;2024-01-15T07:45:40;41.43;;;18.27;;
8665;SDS011;4370;48.916;8.380;2024-01-15T07:48:06;40.33;;;18.90;;
8665;SDS011;4370;48.916;8.380;2024-01-15T07:50:32;38.63;;;19.50;;
8665;SDS011;4370;48.916;8.380;2024-01-15T07:52:58;39.07;;;19.27;;
8665;SDS011;4370;48.916;8.380;2024-01-15T07:55:24;38.73;;;17.87;;
8665;SDS011;4370;48.916;8.380;2024-01-15T07:57:50;39.37;;;17.70;;
8665;SDS011;4370;48.916;8.380;2024-01-15T08:00:17;41.17;;;18.13;;
8665;SDS011;4370;48.916;8.380;2024-01-15T08:02:43;38.40;;;18.23;;
8665;SDS011;4370;48.916;8.380;2024-01-15T08:05:09;37.67;;;17.17;;
8665;SDS011;4370;48.916;8.380;2024-01-15T08:07:35;41.03;;;18.67;;
8665;SDS011;4370;48.916;8.380;2024-01-15T08:10:01;32.57;;;16.77;;
8665;SDS011;4370;48.916;8.380;2024-01-15T08:12:28;35.23;;;17.23;;
8665;SDS011;4370;48.916;8.380;2024-01-15T08:14:54;37.07;;;17.93;;
8665;SDS011;4370;48.916;8.380;2024-01-15T08:17:19;40.00;;;17.53;;
8665;SDS011;4370;48.916;8.380;2024-01-15T08:19:45;37.57;;;18.30;;
8665;SDS011;4370;48.916;8.380;2024-01-15T08:22:11;40.10;;;18.27;;
8665;SDS011;4370;48.916;8.380;2024-01-15T08:24:37;33.37;;;16.30;;
8665;SDS011;4370;48.916;8.380;2024-01-15T08:27:03;39.07;;;18.00;;
8665;SDS011;4370;48.916;8.380;2024-01-15T08:29:29;37.73;;;17.33;;
8665;SDS011;4370;48.916;8.380;2024-01-15T08:31:58;38.33;;;17.73;;
8665;SDS011;4370;48.916;8.380;2024-01-15T08:34:24;31.83;;;16.60;;
8665;SDS011;4370;48.916;8.380;2024-01-15T08:36:50;37.07;;;16.90;;
8665;SDS011;4370;48.916;8.380;2024-01-15T08:39:16;33.87;;;16.33;;
8665;SDS011;4370;48.916;8.380;2024-01-15T08:41:44;35.30;;;18.23;;
8665;SDS011;4370;48.916;8.380;2024-01-15T08:44:11;39.63;;;17.57;;
8665;SDS011;4370;48.916;8.380;2024-01-15T08:46:37;35.97;;;16.13;;
8665;SDS011;4370;48.916;8.380;2024-01-15T08:49:03;32.87;;;16.13;;
8665;SDS011;4370;48.916;8.380;2024-01-15T08:51:30;33.73;;;15.57;;
8665;SDS011;4370;48.916;8.380;2024-01-15T08:53:56;31.70;;;15.23;;
8665;SDS011;4370;48.916;8.380;2024-01-15T08:56:22;33.70;;;16.77;;
8665;SDS011;4370;48.916;8.380;2024-01-15T08:58:48;34.50;;;16.03;;
8665;SDS011;4370;48.916;8.380;2024-01-15T09:01:15;34.00;;;15.60;;
8665;SDS011;4370;48.916;8.380;2024-01-15T09:03:41;32.50;;;15.67;;
8665;SDS011;4370;48.916;8.380;2024-01-15T09:06:07;30.53;;;15.33;;
8665;SDS011;4370;48.916;8.380;2024-01-15T09:08:34;32.23;;;15.53;;
8665;SDS011;4370;48.916;8.380;2024-01-15T09:11:01;34.70;;;15.90;;
8665;SDS011;4370;48.916;8.380;2024-01-15T09:13:28;32.07;;;15.53;;
8665;SDS011;4370;48.916;8.380;2024-01-15T09:15:54;31.63;;;15.50;;
8665;SDS011;4370;48.916;8.380;2024-01-15T09:18:19;34.13;;;15.30;;
8665;SDS011;4370;48.916;8.380;2024-01-15T09:20:45;34.77;;;16.13;;
8665;SDS011;4370;48.916;8.380;2024-01-15T09:23:11;30.47;;;14.30;;
8665;SDS011;4370;48.916;8.380;2024-01-15T09:25:37;33.10;;;15.33;;
8665;SDS011;4370;48.916;8.380;2024-01-15T09:28:03;28.33;;;14.13;;
8665;SDS011;4370;48.916;8.380;2024-01-15T09:30:29;31.17;;;14.90;;
8665;SDS011;4370;48.916;8.380;2024-01-15T09:32:55;28.23;;;14.83;;
8665;SDS011;4370;48.916;8.380;2024-01-15T09:35:22;30.50;;;14.53;;
8665;SDS011;4370;48.916;8.380;2024-01-15T09:37:48;34.13;;;15.77;;
8665;SDS011;4370;48.916;8.380;2024-01-15T09:40:14;29.67;;;14.37;;
8665;SDS011;4370;48.916;8.380;2024-01-15T09:42:40;30.00;;;14.80;;
8665;SDS011;4370;48.916;8.380;2024-01-15T09:45:07;27.90;;;14.17;;
8665;SDS011;4370;48.916;8.380;2024-01-15T09:47:34;31.23;;;13.90;;
8665;SDS011;4370;48.916;8.380;2024-01-15T09:50:00;29.60;;;14.23;;
8665;SDS011;4370;48.916;8.380;2024-01-15T09:52:28;27.33;;;13.43;;
8665;SDS011;4370;48.916;8.380;2024-01-15T09:54:55;27.63;;;13.93;;
8665;SDS011;4370;48.916;8.380;2024-01-15T09:57:21;26.33;;;13.47;;
8665;SDS011;4370;48.916;8.380;2024-01-15T09:59:47;25.27;;;12.77;;
8665;SDS011;4370;48.916;8.380;2024-01-15T10:02:14;29.83;;;14.00;;
8665;SDS011;4370;48.916;8.380;2024-01-15T10:04:43;26.17;;;14.37;;
8665;SDS011;4370;48.916;8.380;2024-01-15T10:07:09;30.53;;;15.23;;
8665;SDS011;4370;48.916;8.380;2024-01-15T10:09:37;28.57;;;13.67;;
8665;SDS011;4370;48.916;8.380;2024-01-15T10:12:03;28.33;;;14.53;;
8665;SDS011;4370;48.916;8.380;2024-01-15T10:14:29;30.87;;;14.60;;
8665;SDS011;4370;48.916;8.380;2024-01-15T10:16:55;26.43;;;13.00;;
8665;SDS011;4370;48.916;8.380;2024-01-15T10:19:22;32.17;;;14.13;;
8665;SDS011;4370;48.916;8.380;2024-01-15T10:21:48;30.33;;;12.93;;
8665;SDS011;4370;48.916;8.380;2024-01-15T10:24:14;23.57;;;12.50;;
8665;SDS011;4370;48.916;8.380;2024-01-15T10:26:40;23.17;;;11.70;;
8665;SDS011;4370;48.916;8.380;2024-01-15T10:29:06;25.50;;;11.83;;
8665;SDS011;4370;48.916;8.380;2024-01-15T10:31:32;22.90;;;11.40;;
8665;SDS011;4370;48.916;8.380;2024-01-15T10:34:11;25.03;;;12.27;;
8665;SDS011;4370;48.916;8.380;2024-01-15T10:36:40;23.20;;;11.10;;
8665;SDS011;4370;48.916;8.380;2024-01-15T10:39:06;21.60;;;10.10;;
8665;SDS011;4370;48.916;8.380;2024-01-15T10:41:33;23.57;;;10.17;;
8665;SDS011;4370;48.916;8.380;2024-01-15T10:43:59;21.40;;;10.30;;
8665;SDS011;4370;48.916;8.380;2024-01-15T10:46:25;21.67;;;10.20;;
8665;SDS011;4370;48.916;8.380;2024-01-15T10:48:51;24.27;;;11.53;;
8665;SDS011;4370;48.916;8.380;2024-01-15T10:51:17;22.37;;;12.30;;
8665;SDS011;4370;48.916;8.380;2024-01-15T10:53:44;20.07;;;10.80;;
8665;SDS011;4370;48.916;8.380;2024-01-15T10:56:11;28.53;;;11.70;;
8665;SDS011;4370;48.916;8.380;2024-01-15T10:58:37;25.83;;;13.30;;
8665;SDS011;4370;48.916;8.380;2024-01-15T11:01:05;28.83;;;13.03;;
8665;SDS011;4370;48.916;8.380;2024-01-15T11:03:31;30.80;;;14.10;;
8665;SDS011;4370;48.916;8.380;2024-01-15T11:05:57;23.07;;;12.33;;
8665;SDS011;4370;48.916;8.380;2024-01-15T11:08:24;26.57;;;12.30;;
8665;SDS011;4370;48.916;8.380;2024-01-15T11:10:51;25.83;;;11.97;;
8665;SDS011;4370;48.916;8.380;2024-01-15T11:15:55;24.60;;;12.37;;
8665;SDS011;4370;48.916;8.380;2024-01-15T11:18:22;28.63;;;12.37;;
8665;SDS011;4370;48.916;8.380;2024-01-15T11:23:42;23.13;;;12.00;;
8665;SDS011;4370;48.916;8.380;2024-01-15T11:28:56;27.50;;;12.70;;
8665;SDS011;4370;48.916;8.380;2024-01-15T11:34:02;23.33;;;12.67;;
8665;SDS011;4370;48.916;8.380;2024-01-15T11:42:02;28.97;;;12.83;;
8665;SDS011;4370;48.916;8.380;2024-01-15T11:44:28;22.77;;;12.43;;
8665;SDS011;4370;48.916;8.380;2024-01-15T11:46:58;28.23;;;12.67;;
8665;SDS011;4370;48.916;8.380;2024-01-15T11:51:57;28.40;;;14.13;;
8665;SDS011;4370;48.916;8.380;2024-01-15T11:54:24;23.60;;;11.20;;
8665;SDS011;4370;48.916;8.380;2024-01-15T11:56:51;25.87;;;12.73;;
8665;SDS011;4370;48.916;8.380;2024-01-15T11:59:17;25.87;;;12.00;;
8665;SDS011;4370;48.916;8.380;2024-01-15T12:01:43;27.80;;;12.93;;
8665;SDS011;4370;48.916;8.380;2024-01-15T12:04:09;27.53;;;13.57;;
8665;SDS011;4370;48.916;8.380;2024-01-15T12:06:35;22.53;;;11.57;;
8665;SDS011;4370;48.916;8.380;2024-01-15T12:09:07;28.43;;;12.73;;
8665;SDS011;4370;48.916;8.380;2024-01-15T12:11:34;26.30;;;11.93;;
8665;SDS011;4370;48.916;8.380;2024-01-15T12:14:02;33.67;;;13.57;;
8665;SDS011;4370;48.916;8.380;2024-01-15T12:16:28;26.73;;;12.07;;
8665;SDS011;4370;48.916;8.380;2024-01-15T12:18:54;26.33;;;11.83;;
8665;SDS011;4370;48.916;8.380;2024-01-15T12:21:20;23.27;;;12.20;;
8665;SDS011;4370;48.916;8.380;2024-01-15T12:23:46;29.57;;;12.80;;
8665;SDS011;4370;48.916;8.380;2024-01-15T12:26:13;28.23;;;12.87;;
8665;SDS011;4370;48.916;8.380;2024-01-15T12:28:39;26.63;;;12.83;;
8665;SDS011;4370;48.916;8.380;2024-01-15T12:31:05;25.97;;;13.40;;
8665;SDS011;4370;48.916;8.380;2024-01-15T12:33:32;25.43;;;13.80;;
8665;SDS011;4370;48.916;8.380;2024-01-15T12:35:58;26.00;;;13.27;;
8665;SDS011;4370;48.916;8.380;2024-01-15T12:38:24;29.27;;;14.17;;
8665;SDS011;4370;48.916;8.380;2024-01-15T12:40:50;28.97;;;15.13;;
8665;SDS011;4370;48.916;8.380;2024-01-15T12:43:17;28.30;;;14.23;;
8665;SDS011;4370;48.916;8.380;2024-01-15T12:45:43;25.33;;;12.70;;
8665;SDS011;4370;48.916;8.380;2024-01-15T12:48:09;26.83;;;13.37;;
8665;SDS011;4370;48.916;8.380;2024-01-15T12:50:34;24.57;;;12.70;;
8665;SDS011;4370;48.916;8.380;2024-01-15T12:53:01;29.37;;;14.67;;
8665;SDS011;4370;48.916;8.380;2024-01-15T12:55:27;30.20;;;13.63;;
8665;SDS011;4370;48.916;8.380;2024-01-15T12:57:53;22.67;;;12.67;;
8665;SDS011;4370;48.916;8.380;2024-01-15T13:00:20;25.00;;;12.17;;
8665;SDS011;4370;48.916;8.380;2024-01-15T13:02:46;24.77;;;12.93;;
8665;SDS011;4370;48.916;8.380;2024-01-15T13:05:12;24.60;;;12.63;;
8665;SDS011;4370;48.916;8.380;2024-01-15T13:07:38;26.77;;;12.93;;
8665;SDS011;4370;48.916;8.380;2024-01-15T13:10:05;27.10;;;12.33;;
8665;SDS011;4370;48.916;8.380;2024-01-15T13:12:31;25.40;;;13.10;;
8665;SDS011;4370;48.916;8.380;2024-01-15T13:14:58;22.77;;;12.33;;
8665;SDS011;4370;48.916;8.380;2024-01-15T13:17:24;22.70;;;11.50;;
8665;SDS011;4370;48.916;8.380;2024-01-15T13:19:50;25.53;;;12.57;;
8665;SDS011;4370;48.916;8.380;2024-01-15T13:22:16;23.00;;;11.37;;
8665;SDS011;4370;48.916;8.380;2024-01-15T13:24:42;25.93;;;13.13;;
8665;SDS011;4370;48.916;8.380;2024-01-15T13:27:08;23.33;;;12.43;;
8665;SDS011;4370;48.916;8.380;2024-01-15T13:29:34;28.07;;;12.97;;
8665;SDS011;4370;48.916;8.380;2024-01-15T13:32:00;21.90;;;12.27;;
8665;SDS011;4370;48.916;8.380;2024-01-15T13:34:26;20.97;;;12.17;;
8665;SDS011;4370;48.916;8.380;2024-01-15T13:39:24;28.20;;;12.60;;
8665;SDS011;4370;48.916;8.380;2024-01-15T13:41:50;23.20;;;11.90;;
8665;SDS011;4370;48.916;8.380;2024-01-15T13:44:16;21.20;;;11.27;;
8665;SDS011;4370;48.916;8.380;2024-01-15T13:46:41;24.70;;;11.93;;
8665;SDS011;4370;48.916;8.380;2024-01-15T13:49:08;22.60;;;11.37;;
8665;SDS011;4370;48.916;8.380;2024-01-15T13:51:34;21.93;;;10.93;;
8665;SDS011;4370;48.916;8.380;2024-01-15T13:54:01;18.63;;;10.63;;
8665;SDS011;4370;48.916;8.380;2024-01-15T13:56:29;22.23;;;11.47;;
8665;SDS011;4370;48.916;8.380;2024-01-15T13:58:57;19.40;;;10.50;;
8665;SDS011;4370;48.916;8.380;2024-01-15T14:01:23;21.47;;;11.47;;
8665;SDS011;4370;48.916;8.380;2024-01-15T14:03:49;19.73;;;11.37;;
8665;SDS011;4370;48.916;8.380;2024-01-15T14:06:15;24.60;;;12.40;;
8665;SDS011;4370;48.916;8.380;2024-01-15T14:08:41;19.07;;;10.87;;
8665;SDS011;4370;48.916;8.380;2024-01-15T14:11:07;21.43;;;12.03;;
8665;SDS011;4370;48.916;8.380;2024-01-15T14:13:33;20.73;;;11.07;;
8665;SDS011;4370;48.916;8.380;2024-01-15T14:15:59;18.10;;;10.37;;
8665;SDS011;4370;48.916;8.380;2024-01-15T14:18:25;22.60;;;10.77;;
8665;SDS011;4370;48.916;8.380;2024-01-15T14:20:51;21.43;;;10.67;;
8665;SDS011;4370;48.916;8.380;2024-01-15T14:23:18;18.27;;;10.60;;
8665;SDS011;4370;48.916;8.380;2024-01-15T14:25:44;19.20;;;10.87;;
8665;SDS011;4370;48.916;8.380;2024-01-15T14:28:10;20.23;;;11.20;;
8665;SDS011;4370;48.916;8.380;2024-01-15T14:30:36;19.90;;;10.73;;
8665;SDS011;4370;48.916;8.380;2024-01-15T14:33:02;18.23;;;10.40;;
8665;SDS011;4370;48.916;8.380;2024-01-15T14:35:28;18.00;;;10.13;;
8665;SDS011;4370;48.916;8.380;2024-01-15T14:37:54;16.47;;;10.63;;
8665;SDS011;4370;48.916;8.380;2024-01-15T14:40:20;21.50;;;10.37;;
8665;SDS011;4370;48.916;8.380;2024-01-15T14:42:46;17.77;;;10.43;;
8665;SDS011;4370;48.916;8.380;2024-01-15T14:45:12;19.30;;;11.20;;
8665;SDS011;4370;48.916;8.380;2024-01-15T14:47:38;19.17;;;10.90;;
8665;SDS011;4370;48.916;8.380;2024-01-15T14:50:07;14.47;;;9.27;;
8665;SDS011;4370;48.916;8.380;2024-01-15T14:52:33;19.00;;;10.53;;
8665;SDS011;4370;48.916;8.380;2024-01-15T14:54:59;17.33;;;10.03;;
8665;SDS011;4370;48.916;8.380;2024-01-15T14:57:25;20.73;;;11.03;;
8665;SDS011;4370;48.916;8.380;2024-01-15T14:59:51;18.93;;;11.43;;
8665;SDS011;4370;48.916;8.380;2024-01-15T15:02:18;17.93;;;9.77;;